Latest Weather Observations for Merriwa

IDN60801

Issued at 10:35 pm EST Wednesday 27 August 2014 (issued every 30 minutes, with the page automatically refreshed every 10 minutes)

About weather observations | Map of weather stations | Latest weather observations for NSW | Other Formats
Station Details ID: 061287 Name: MERRIWA (ROSCOMMON) Lat: -32.19 Lon: 150.17 Height: 375.0 m
Data from the previous 72 hours. | See also: Recent months at Merriwa
Date/Time
EST
Temp
°C
App
Temp
°C
Dew
Point
Rel
Hum
%
Delta-T
°C
Wind Press
QNH
hPa
Press
MSL
hPa
Rain
since 9 am
mm
Dir
 
Spd
km/h
Gust
km/h
Spd
kts
Gust
kts
27/10:30pm 10.1 7.0 7.2 82 1.4 ESE 13 17 7 9 1024.9 - 0.2
27/10:00pm 10.6 7.5 7.3 80 1.6 SE 13 19 7 10 1024.8 - 0.2
27/09:30pm 10.3 6.8 7.0 80 1.6 SE 15 19 8 10 1024.7 - 0.2
27/09:00pm 11.0 6.7 7.1 77 1.9 SSE 19 32 10 17 1024.7 1025.3 0.2
27/08:30pm 11.5 7.2 7.8 78 1.8 SSE 20 30 11 16 1024.7 - 0.2
27/08:00pm 11.0 9.1 8.9 87 1.1 SSE 9 11 5 6 1024.8 - 0.2
27/07:30pm 11.0 8.5 8.2 83 1.4 SSE 11 13 6 7 1024.7 - 0.2
27/07:00pm 11.4 8.5 8.3 81 1.6 SE 13 17 7 9 1024.3 - 0.2
27/06:30pm 11.2 8.4 8.4 83 1.4 SSE 13 17 7 9 1023.9 - 0.2
27/06:00pm 11.5 7.9 8.2 80 1.6 SE 17 22 9 12 1023.6 1024.1 0.2
27/05:30pm 12.4 9.3 8.9 79 1.8 SSE 15 24 8 13 1023.2 - 0.2
27/05:00pm 12.9 10.2 10.3 84 1.4 SSE 15 20 8 11 1022.9 - 0.2
27/04:30pm 12.2 10.0 10.8 91 0.7 SE 13 20 7 11 1022.6 - 0.2
27/04:00pm 13.1 8.4 9.4 78 1.9 SE 24 39 13 21 1022.6 - 0.2
27/03:30pm 14.6 9.2 9.4 71 2.7 SE 28 46 15 25 1022.2 - 0.2
27/03:28pm 14.9 9.4 9.3 69 2.9 SE 28 46 15 25 1022.2 - 0.2
27/03:00pm 13.6 10.0 10.6 82 1.6 ESE 20 30 11 16 1022.2 1022.8 0.2
27/02:30pm 15.2 9.7 9.1 67 3.2 SE 28 39 15 21 1022.0 - 0.2
27/02:00pm 15.2 10.7 10.2 72 2.7 SE 24 37 13 20 1021.9 - 0.2
27/01:30pm 15.9 11.5 11.7 76 2.3 ESE 26 39 14 21 1021.8 - 0.2
27/01:00pm 14.4 9.2 10.2 76 2.2 SE 28 39 15 21 1022.2 - 0.2
27/12:30pm 12.8 8.0 11.7 93 0.6 SE 28 35 15 19 1022.7 - 0.2
27/12:00pm 15.1 9.8 9.9 71 2.7 SE 28 41 15 22 1022.9 1023.5 0.0
27/11:30am 13.3 9.0 10.7 84 1.4 SE 24 35 13 19 1023.3 - 0.0
27/11:00am 13.1 8.8 10.6 85 1.3 SE 24 33 13 18 1023.8 - 0.0
27/10:30am 12.2 7.0 10.3 88 1.0 SE 28 39 15 21 1024.0 - 0.0
27/10:00am 13.5 9.1 11.6 88 1.0 SE 26 35 14 19 1023.8 - 0.0
27/09:30am 12.0 7.1 10.1 88 1.0 SE 26 37 14 20 1023.6 - 0.0
27/09:00am 12.6 8.6 10.3 86 1.2 SE 22 35 12 19 1023.4 1023.9 14.4
27/08:30am 11.9 8.6 10.8 93 0.6 SE 19 28 10 15 1023.3 - 14.4
27/08:00am 11.4 8.2 11.1 98 0.2 SE 19 24 10 13 1022.8 - 14.4
27/07:30am 10.8 8.1 10.5 98 0.2 SE 15 19 8 10 1022.3 - 14.4
27/07:00am 10.4 7.6 10.1 98 0.2 ESE 15 20 8 11 1022.0 - 14.4
27/06:30am 10.7 7.3 10.5 99 0.1 SE 19 24 10 13 1021.6 - 14.4
27/06:00am 10.8 7.8 10.6 99 0.1 SE 17 20 9 11 1021.7 1022.2 14.4
27/05:47am 10.8 7.8 10.6 99 0.1 SE 17 22 9 12 1021.5 - 14.4
27/05:30am 11.0 7.1 10.8 99 0.1 SE 22 32 12 17 1021.6 - 14.4
27/05:11am 10.9 7.9 10.7 99 0.1 ESE 17 24 9 13 1021.6 - 14.0
27/05:00am 10.9 8.3 10.7 99 0.1 SE 15 20 8 11 1021.6 - 14.0
27/04:30am 10.8 8.2 10.6 99 0.1 SE 15 19 8 10 1021.5 - 13.6
27/04:00am 10.9 7.9 10.7 99 0.1 SE 17 24 9 13 1021.6 - 12.2
27/03:30am 11.1 8.2 10.9 99 0.1 SE 17 22 9 12 1021.5 - 10.6
27/03:00am 11.1 8.6 10.9 99 0.1 SE 15 22 8 12 1021.3 1021.8 10.2
27/02:50am 11.0 8.8 10.8 99 0.1 SE 13 17 7 9 1021.4 - 10.0
27/02:39am 10.9 9.1 10.7 99 0.1 SSE 11 15 6 8 1021.4 - 10.0
27/02:37am 10.8 8.9 10.6 99 0.1 SSE 11 15 6 8 1021.5 - 10.0
27/02:30am 10.9 8.7 10.7 99 0.1 SE 13 19 7 10 1021.5 - 10.0
27/02:00am 10.9 9.4 10.7 99 0.1 SSE 9 11 5 6 1021.7 - 8.6
27/01:58am 10.9 9.4 10.7 99 0.1 SSE 9 11 5 6 1021.7 - 8.6
27/01:30am 11.0 9.6 10.8 99 0.1 ESE 9 11 5 6 1021.9 - 8.0
27/01:00am 10.8 8.9 10.6 99 0.1 SE 11 15 6 8 1022.0 - 8.0
27/12:30am 10.7 9.8 10.5 99 0.1 S 6 7 3 4 1022.1 - 7.8
27/12:00am 10.6 8.7 10.4 99 0.1 S 11 15 6 8 1022.1 1022.7 7.8
 
Date/Time
EST
Temp
°C
App
Temp
°C
Dew
Point
Rel
Hum
%
Delta-T
°C
Wind Press
QNH
hPa
Press
MSL
hPa
Rain
since 9 am
mm
Dir
 
Spd
km/h
Gust
km/h
Spd
kts
Gust
kts
26/11:33pm 10.5 8.9 10.3 99 0.1 S 9 13 5 7 1022.2 - 7.8
26/11:30pm 10.7 9.2 10.5 99 0.1 SSE 9 13 5 7 1022.2 - 7.8
26/11:18pm 10.6 8.7 10.4 99 0.1 S 11 15 6 8 1022.3 - 7.8
26/11:00pm 10.9 8.7 10.7 99 0.1 SSE 13 19 7 10 1022.4 - 7.8
26/10:30pm 10.4 8.4 10.2 99 0.1 SSE 11 13 6 7 1022.5 - 7.8
26/10:00pm 9.6 8.2 9.5 99 0.1 S 7 9 4 5 1022.5 - 7.8
26/09:30pm 9.7 7.9 9.6 99 0.1 S 9 11 5 6 1022.4 - 7.8
26/09:00pm 10.2 8.9 10.0 99 0.1 SE 7 9 4 5 1022.4 1023.0 7.8
26/08:30pm 10.7 9.2 10.5 99 0.1 ESE 9 11 5 6 1022.4 - 7.8
26/08:00pm 10.9 9.4 10.7 99 0.1 ESE 9 13 5 7 1022.2 - 7.8
26/07:30pm 10.9 9.1 10.7 99 0.1 SE 11 15 6 8 1022.2 - 7.8
26/07:00pm 11.0 9.2 10.8 99 0.1 SSE 11 13 6 7 1021.9 - 7.4
26/06:30pm 11.0 9.6 10.8 99 0.1 S 9 11 5 6 1021.7 - 7.4
26/06:00pm 11.0 9.9 10.8 99 0.1 SSE 7 11 4 6 1021.5 1022.0 7.4
26/05:30pm 11.0 9.6 10.8 99 0.1 ESE 9 11 5 6 1021.3 - 7.4
26/05:00pm 11.3 10.0 11.1 99 0.1 E 9 13 5 7 1021.3 - 7.0
26/04:30pm 11.7 10.1 11.5 99 0.1 SE 11 13 6 7 1020.9 - 6.2
26/04:00pm 11.9 9.6 11.7 99 0.1 SE 15 20 8 11 1020.7 - 5.8
26/03:30pm 11.8 9.5 11.6 99 0.1 ESE 15 22 8 12 1020.6 - 5.8
26/03:00pm 12.6 8.8 12.4 99 0.1 ESE 24 39 13 21 1020.4 1020.9 4.6
26/02:30pm 11.6 7.9 11.4 99 0.1 SE 22 32 12 17 1020.4 - 3.8
26/02:27pm 11.5 7.0 11.3 99 0.1 ESE 26 46 14 25 1020.4 - 3.8
26/02:18pm 12.1 7.1 11.0 93 0.6 ESE 28 46 15 25 1020.1 - 0.6
26/02:00pm 15.2 11.9 10.8 75 2.4 SE 19 28 10 15 1020.0 - 0.0
26/01:30pm 14.2 10.8 10.4 78 2.0 SE 19 26 10 14 1020.5 - 0.0
26/01:00pm 14.5 11.0 10.9 79 1.9 ESE 20 30 11 16 1020.8 - 0.0
26/12:30pm 13.4 8.9 10.0 80 1.8 SE 24 35 13 19 1021.1 - 0.0
26/12:00pm 14.6 10.7 9.4 71 2.7 ESE 20 24 11 13 1021.4 1021.9 0.0
26/11:30am 13.9 10.4 10.1 78 2.0 E 19 28 10 15 1021.9 - 0.0
26/11:00am 13.2 9.8 10.7 85 1.3 E 19 30 10 16 1022.2 - 0.0
26/10:30am 13.7 10.4 9.7 77 2.1 E 17 26 9 14 1022.2 - 0.0
26/10:00am 13.5 10.5 10.5 82 1.6 E 17 24 9 13 1022.2 - 0.0
26/09:30am 12.7 9.2 10.8 88 1.0 ESE 20 28 11 15 1022.3 - 0.0
26/09:00am 11.9 8.3 10.5 91 0.7 ESE 20 28 11 15 1022.2 1022.8 0.0
26/08:38am 11.4 7.8 10.6 95 0.4 ESE 20 28 11 15 1022.2 - 0.0
26/08:30am 11.3 8.0 11.0 98 0.2 ESE 19 26 10 14 1022.2 - 0.0
26/08:19am 11.0 8.4 10.7 98 0.2 ESE 15 20 8 11 1022.2 - 0.0
26/08:00am 10.8 8.5 10.5 98 0.2 ESE 13 19 7 10 1022.1 - 0.0
26/07:30am 10.6 8.9 10.0 96 0.3 E 9 13 5 7 1022.1 - 0.0
26/07:00am 10.5 9.2 9.9 96 0.3 E 7 9 4 5 1021.8 - 0.0
26/06:48am 10.4 9.1 9.8 96 0.3 E 7 9 4 5 1021.7 - 0.0
26/06:30am 10.1 8.9 9.5 96 0.3 E 6 7 3 4 1021.5 - 0.0
26/06:00am 10.2 9.0 9.4 95 0.4 E 6 9 3 5 1021.1 1021.6 0.0
26/05:30am 10.4 8.6 9.6 95 0.4 SE 9 11 5 6 1020.9 - 0.0
26/05:00am 10.2 8.8 9.6 96 0.3 SE 7 9 4 5 1020.9 - 0.0
26/04:30am 10.0 9.9 9.4 96 0.3 CALM 0 0 0 0 1020.8 - 0.0
26/04:00am 10.1 9.1 9.0 93 0.6 SE 4 6 2 3 1020.7 - 0.0
26/03:30am 10.1 8.7 8.9 92 0.6 SE 6 7 3 4 1020.7 - 0.0
26/03:00am 10.2 8.6 8.6 90 0.8 SE 7 9 4 5 1020.8 1021.3 0.0
26/02:30am 10.4 9.0 8.8 90 0.8 SE 6 7 3 4 1020.9 - 0.0
26/02:00am 10.3 9.0 9.1 92 0.6 SE 6 7 3 4 1021.1 - 0.0
26/01:51am 10.2 8.8 9.0 92 0.6 SE 6 7 3 4 1021.2 - 0.0
26/01:30am 10.1 8.6 9.0 93 0.6 SE 7 9 4 5 1021.3 - 0.0
26/01:15am 9.9 9.6 8.7 92 0.6 CALM 0 6 0 3 1021.4 - 0.0
26/01:00am 9.7 8.3 8.8 94 0.5 SE 6 7 3 4 1021.6 - 0.0
26/12:30am 9.0 7.1 7.6 91 0.7 SE 7 9 4 5 1021.8 - 0.0
26/12:00am 10.2 8.6 8.0 86 1.1 SE 6 7 3 4 1021.8 1022.3 0.0
 
Date/Time
EST
Temp
°C
App
Temp
°C
Dew
Point
Rel
Hum
%
Delta-T
°C
Wind Press
QNH
hPa
Press
MSL
hPa
Rain
since 9 am
mm
Dir
 
Spd
km/h
Gust
km/h
Spd
kts
Gust
kts
25/11:30pm 10.5 8.8 8.3 86 1.1 SE 7 9 4 5 1021.9 - 0.0
25/11:00pm 11.0 8.6 8.8 86 1.1 SE 11 13 6 7 1022.0 - 0.0
25/10:30pm 8.9 7.2 7.4 90 0.7 E 6 9 3 5 1022.1 - 0.0
25/10:00pm 9.4 6.7 7.2 86 1.1 ESE 11 13 6 7 1022.1 - 0.0
25/09:30pm 10.9 7.6 8.0 82 1.4 SE 15 19 8 10 1022.3 - 0.0
25/09:00pm 10.5 7.4 7.4 81 1.5 SE 13 17 7 9 1022.3 1022.9 0.0
25/08:30pm 10.4 7.6 7.1 80 1.6 ESE 11 13 6 7 1022.4 - 0.0
25/08:00pm 11.9 9.6 7.6 75 2.1 SSE 9 13 5 7 1022.2 - 0.0
25/07:30pm 12.1 8.7 7.8 75 2.1 SE 15 17 8 9 1022.1 - 0.0
25/07:00pm 12.7 11.0 8.2 74 2.3 SSW 7 11 4 6 1021.9 - 0.0
25/06:30pm 13.2 10.8 8.5 73 2.4 SW 11 15 6 8 1022.0 - 0.0
25/06:00pm 12.1 9.9 7.8 75 2.1 SSE 9 11 5 6 1021.6 1022.1 0.0
25/05:30pm 13.9 10.9 7.7 66 3.1 SE 13 17 7 9 1021.5 - 0.0
25/05:00pm 15.6 11.8 7.4 58 4.2 SE 17 20 9 11 1021.3 - 0.0
25/04:30pm 16.7 12.5 8.1 57 4.4 ESE 20 26 11 14 1021.3 - 0.0
25/04:00pm 16.4 11.7 7.6 56 4.5 SE 22 28 12 15 1021.3 - 0.0
25/03:30pm 17.7 15.4 7.4 51 5.3 E 9 13 5 7 1021.4 - 0.0
25/03:00pm 18.9 16.6 5.7 42 6.6 ESE 7 13 4 7 1021.6 1022.1 0.0
25/02:30pm 19.0 16.6 6.8 45 6.2 NE 9 13 5 7 1021.8 - 0.0
25/02:00pm 18.6 16.2 7.1 47 5.9 NNE 9 13 5 7 1022.0 - 0.0
25/01:30pm 18.0 16.4 8.6 54 4.9 NE 7 13 4 7 1022.5 - 0.0
25/01:00pm 17.9 15.4 8.2 53 5.1 NNE 11 15 6 8 1022.9 - 0.0
25/12:30pm 17.4 15.3 8.3 55 4.7 E 9 15 5 8 1023.5 - 0.0
25/12:00pm 17.1 15.2 9.0 59 4.3 NNE 9 15 5 8 1024.1 1024.6 0.0
25/11:30am 16.2 15.0 9.6 65 3.5 N 6 11 3 6 1024.7 - 0.0
25/11:00am 15.7 14.6 10.0 69 3.0 NNW 6 9 3 5 1025.0 - 0.0
25/10:30am 14.2 13.1 10.0 76 2.2 N 6 11 3 6 1025.5 - 0.0
25/10:04am 13.3 12.1 9.5 78 2.0 NW 6 9 3 5 1025.9 - 0.0
25/10:00am 13.5 12.4 9.9 79 1.9 NNW 6 9 3 5 1025.9 - 0.0
25/09:30am 12.6 11.9 10.0 84 1.4 E 4 9 2 5 1026.3 - 0.0
25/09:00am 10.9 9.8 9.8 93 0.6 WSW 6 9 3 5 1026.5 1027.1 0.0
25/08:30am 10.6 10.0 10.3 98 0.2 W 4 11 2 6 1026.4 - 0.0
25/08:00am 10.1 10.1 9.9 99 0.1 CALM 0 0 0 0 1026.1 - 0.0
25/07:30am 9.4 9.3 9.3 99 0.1 CALM 0 0 0 0 1026.0 - 0.0
25/07:00am 8.8 8.5 8.7 99 0.0 CALM 0 4 0 2 1025.9 - 0.0
25/06:30am 8.7 8.4 8.6 99 0.0 CALM 0 0 0 0 1025.5 - 0.0
25/06:00am 8.9 8.6 8.8 99 0.0 CALM 0 0 0 0 1025.3 1025.9 0.0
25/05:30am 8.7 8.4 8.6 99 0.0 CALM 0 0 0 0 1025.2 - 0.0
25/05:00am 8.8 8.5 8.7 99 0.0 CALM 0 0 0 0 1025.1 - 0.0
25/04:30am 8.7 8.0 8.6 99 0.0 E 2 9 1 5 1024.9 - 0.0
25/04:00am 8.5 8.1 8.4 99 0.0 CALM 0 0 0 0 1025.1 - 0.0
25/03:30am 8.2 7.8 8.1 99 0.0 CALM 0 7 0 4 1025.2 - 0.0
25/03:00am 7.4 6.8 7.3 99 0.0 CALM 0 2 0 1 1025.3 1025.9 0.0
25/02:30am 6.5 5.7 6.4 99 0.0 CALM 0 0 0 0 1025.5 - 0.0
25/02:00am 6.5 5.7 6.4 99 0.0 CALM 0 0 0 0 1025.7 - 0.0
25/01:30am 5.7 4.7 5.6 99 0.0 CALM 0 0 0 0 1026.1 - 0.0
25/01:24am 5.4 4.3 5.3 99 0.0 CALM 0 0 0 0 1026.2 - 0.0
25/01:00am 5.5 4.5 5.4 99 0.0 CALM 0 0 0 0 1026.3 - 0.0
25/12:30am 6.1 5.2 6.0 99 0.0 CALM 0 0 0 0 1026.4 - 0.0
25/12:00am 5.8 4.8 5.7 99 0.0 CALM 0 0 0 0 1026.6 1027.2 0.0
 
Date/Time
EST
Temp
°C
App
Temp
°C
Dew
Point
Rel
Hum
%
Delta-T
°C
Wind Press
QNH
hPa
Press
MSL
hPa
Rain
since 9 am
mm
Dir
 
Spd
km/h
Gust
km/h
Spd
kts
Gust
kts
24/11:30pm 6.7 5.9 6.6 99 0.0 CALM 0 0 0 0 1026.7 - 0.0
24/11:00pm 6.4 5.1 6.1 98 0.1 E 2 6 1 3 1026.7 - 0.0

Other Formats:

Comma delimited format used in spreadsheet applications
http://www.bom.gov.au/fwo/IDN60801/IDN60801.95754.axf

JavaScript Object Notation format (JSON) in row-major order
http://www.bom.gov.au/fwo/IDN60801/IDN60801.95754.json